Terminal Aerodrome Forecast
Issued by NWS Cleveland, OH

Home | Current Version | Previous Version | Text Only | Print | Product List | Glossary Off
Versions: 1 2 3 4 5 6 7 8 9 10 11 12 13 14 15 16 17 18 19 20 21 22 23

000
FTUS41 KCLE 241700
TAFTOL
TAF
KTOL 241739Z 2418/2518 09007KT P6SM SCT250
     FM250000 09007KT P6SM OVC250
     FM250600 09010KT P6SM BKN040 BKN100
     FM250800 12012KT 5SM -SHRA OVC025
     FM251000 15015KT 3SM SHRA OVC008
     FM251400 22015G25KT P6SM BKN015 BKN040=

USA.gov is the U.S. government's official web portal to all federal, state and local government web resources and services.